sensor_id;sensor_type;location;lat;lon;timestamp;P1;durP1;ratioP1;P2;durP2;ratioP2
12312;SDS011;6220;53.580;9.758;2022-11-18T00:01:24;13.83;;;11.50;;
12312;SDS011;6220;53.580;9.758;2022-11-18T00:03:49;14.93;;;11.40;;
12312;SDS011;6220;53.580;9.758;2022-11-18T00:06:16;13.90;;;10.60;;
12312;SDS011;6220;53.580;9.758;2022-11-18T00:08:43;13.23;;;10.87;;
12312;SDS011;6220;53.580;9.758;2022-11-18T00:11:10;14.10;;;10.93;;
12312;SDS011;6220;53.580;9.758;2022-11-18T00:13:37;14.90;;;11.37;;
12312;SDS011;6220;53.580;9.758;2022-11-18T00:16:21;12.93;;;10.73;;
12312;SDS011;6220;53.580;9.758;2022-11-18T00:18:47;13.63;;;12.03;;
12312;SDS011;6220;53.580;9.758;2022-11-18T00:21:12;13.43;;;11.07;;
12312;SDS011;6220;53.580;9.758;2022-11-18T00:23:38;15.37;;;11.23;;
12312;SDS011;6220;53.580;9.758;2022-11-18T00:26:06;14.40;;;11.80;;
12312;SDS011;6220;53.580;9.758;2022-11-18T00:28:40;13.10;;;10.57;;
12312;SDS011;6220;53.580;9.758;2022-11-18T00:31:07;12.23;;;10.93;;
12312;SDS011;6220;53.580;9.758;2022-11-18T00:33:34;13.40;;;10.60;;
12312;SDS011;6220;53.580;9.758;2022-11-18T00:36:01;13.67;;;11.27;;
12312;SDS011;6220;53.580;9.758;2022-11-18T00:38:28;13.53;;;10.93;;
12312;SDS011;6220;53.580;9.758;2022-11-18T00:41:03;13.43;;;10.77;;
12312;SDS011;6220;53.580;9.758;2022-11-18T00:43:30;13.03;;;11.00;;
12312;SDS011;6220;53.580;9.758;2022-11-18T00:45:56;12.73;;;10.50;;
12312;SDS011;6220;53.580;9.758;2022-11-18T00:48:22;11.97;;;10.13;;
12312;SDS011;6220;53.580;9.758;2022-11-18T00:50:48;12.23;;;10.63;;
12312;SDS011;6220;53.580;9.758;2022-11-18T00:53:15;13.10;;;10.83;;
12312;SDS011;6220;53.580;9.758;2022-11-18T00:55:40;12.53;;;10.33;;
12312;SDS011;6220;53.580;9.758;2022-11-18T00:58:06;13.53;;;11.17;;
12312;SDS011;6220;53.580;9.758;2022-11-18T01:00:31;12.13;;;10.43;;
12312;SDS011;6220;53.580;9.758;2022-11-18T01:02:57;12.30;;;10.40;;
12312;SDS011;6220;53.580;9.758;2022-11-18T01:05:22;12.60;;;10.20;;
12312;SDS011;6220;53.580;9.758;2022-11-18T01:07:47;12.90;;;10.63;;
12312;SDS011;6220;53.580;9.758;2022-11-18T01:10:13;11.67;;;9.77;;
12312;SDS011;6220;53.580;9.758;2022-11-18T01:12:38;13.03;;;10.70;;
12312;SDS011;6220;53.580;9.758;2022-11-18T01:15:22;12.03;;;9.87;;
12312;SDS011;6220;53.580;9.758;2022-11-18T01:17:47;13.37;;;11.13;;
12312;SDS011;6220;53.580;9.758;2022-11-18T01:20:14;13.17;;;10.90;;
12312;SDS011;6220;53.580;9.758;2022-11-18T01:22:39;12.97;;;10.70;;
12312;SDS011;6220;53.580;9.758;2022-11-18T01:25:05;14.73;;;10.37;;
12312;SDS011;6220;53.580;9.758;2022-11-18T01:27:30;14.53;;;11.20;;
12312;SDS011;6220;53.580;9.758;2022-11-18T01:29:56;12.87;;;11.23;;
12312;SDS011;6220;53.580;9.758;2022-11-18T01:32:21;13.93;;;11.63;;
12312;SDS011;6220;53.580;9.758;2022-11-18T01:34:46;12.23;;;10.33;;
12312;SDS011;6220;53.580;9.758;2022-11-18T01:37:12;12.70;;;10.67;;
12312;SDS011;6220;53.580;9.758;2022-11-18T01:39:37;14.30;;;11.10;;
12312;SDS011;6220;53.580;9.758;2022-11-18T01:42:03;13.57;;;11.60;;
12312;SDS011;6220;53.580;9.758;2022-11-18T01:47:30;12.50;;;10.60;;
12312;SDS011;6220;53.580;9.758;2022-11-18T01:49:57;13.43;;;10.67;;
12312;SDS011;6220;53.580;9.758;2022-11-18T01:52:23;15.30;;;11.77;;
12312;SDS011;6220;53.580;9.758;2022-11-18T01:54:49;14.97;;;12.10;;
12312;SDS011;6220;53.580;9.758;2022-11-18T01:57:17;13.43;;;11.37;;
12312;SDS011;6220;53.580;9.758;2022-11-18T01:59:46;13.13;;;11.60;;
12312;SDS011;6220;53.580;9.758;2022-11-18T02:02:13;14.30;;;12.00;;
12312;SDS011;6220;53.580;9.758;2022-11-18T02:04:39;15.23;;;11.63;;
12312;SDS011;6220;53.580;9.758;2022-11-18T02:07:07;16.73;;;12.43;;
12312;SDS011;6220;53.580;9.758;2022-11-18T02:09:33;18.83;;;13.33;;
12312;SDS011;6220;53.580;9.758;2022-11-18T02:11:59;15.17;;;12.53;;
12312;SDS011;6220;53.580;9.758;2022-11-18T02:14:32;14.73;;;12.20;;
12312;SDS011;6220;53.580;9.758;2022-11-18T02:19:54;15.03;;;12.50;;
12312;SDS011;6220;53.580;9.758;2022-11-18T02:33:50;17.97;;;13.97;;
12312;SDS011;6220;53.580;9.758;2022-11-18T02:39:12;17.87;;;14.50;;
12312;SDS011;6220;53.580;9.758;2022-11-18T02:41:42;19.40;;;15.67;;
12312;SDS011;6220;53.580;9.758;2022-11-18T02:44:10;18.83;;;15.93;;
12312;SDS011;6220;53.580;9.758;2022-11-18T02:46:38;20.37;;;15.83;;
12312;SDS011;6220;53.580;9.758;2022-11-18T02:49:06;20.27;;;16.03;;
12312;SDS011;6220;53.580;9.758;2022-11-18T02:51:34;17.93;;;15.30;;
12312;SDS011;6220;53.580;9.758;2022-11-18T02:54:15;19.70;;;15.97;;
12312;SDS011;6220;53.580;9.758;2022-11-18T02:56:42;19.03;;;16.37;;
12312;SDS011;6220;53.580;9.758;2022-11-18T02:59:08;18.70;;;15.47;;
12312;SDS011;6220;53.580;9.758;2022-11-18T03:01:34;21.37;;;16.97;;
12312;SDS011;6220;53.580;9.758;2022-11-18T03:04:00;19.80;;;16.77;;
12312;SDS011;6220;53.580;9.758;2022-11-18T03:06:47;18.13;;;15.13;;
12312;SDS011;6220;53.580;9.758;2022-11-18T03:09:31;18.77;;;16.03;;
12312;SDS011;6220;53.580;9.758;2022-11-18T03:17:31;20.67;;;16.67;;
12312;SDS011;6220;53.580;9.758;2022-11-18T03:22:43;21.17;;;16.10;;
12312;SDS011;6220;53.580;9.758;2022-11-18T03:25:27;19.77;;;15.43;;
12312;SDS011;6220;53.580;9.758;2022-11-18T03:28:17;20.57;;;17.20;;
12312;SDS011;6220;53.580;9.758;2022-11-18T03:30:54;19.87;;;16.33;;
12312;SDS011;6220;53.580;9.758;2022-11-18T03:33:29;19.50;;;16.07;;
12312;SDS011;6220;53.580;9.758;2022-11-18T03:36:04;19.23;;;16.30;;
12312;SDS011;6220;53.580;9.758;2022-11-18T03:38:33;21.10;;;17.40;;
12312;SDS011;6220;53.580;9.758;2022-11-18T03:41:02;20.30;;;16.63;;
12312;SDS011;6220;53.580;9.758;2022-11-18T03:43:30;19.80;;;15.97;;
12312;SDS011;6220;53.580;9.758;2022-11-18T03:46:01;20.60;;;16.83;;
12312;SDS011;6220;53.580;9.758;2022-11-18T03:48:35;20.43;;;16.93;;
12312;SDS011;6220;53.580;9.758;2022-11-18T03:51:06;18.60;;;15.87;;
12312;SDS011;6220;53.580;9.758;2022-11-18T03:53:35;19.17;;;15.93;;
12312;SDS011;6220;53.580;9.758;2022-11-18T03:56:05;20.97;;;16.20;;
12312;SDS011;6220;53.580;9.758;2022-11-18T03:58:35;18.77;;;16.13;;
12312;SDS011;6220;53.580;9.758;2022-11-18T04:01:15;18.93;;;15.70;;
12312;SDS011;6220;53.580;9.758;2022-11-18T04:03:43;20.47;;;15.67;;
12312;SDS011;6220;53.580;9.758;2022-11-18T04:06:11;19.93;;;16.07;;
12312;SDS011;6220;53.580;9.758;2022-11-18T04:08:44;20.10;;;15.77;;
12312;SDS011;6220;53.580;9.758;2022-11-18T04:11:12;19.80;;;16.00;;
12312;SDS011;6220;53.580;9.758;2022-11-18T04:14:00;18.00;;;14.70;;
12312;SDS011;6220;53.580;9.758;2022-11-18T04:16:27;17.07;;;14.67;;
12312;SDS011;6220;53.580;9.758;2022-11-18T04:18:52;19.03;;;15.03;;
12312;SDS011;6220;53.580;9.758;2022-11-18T04:21:17;16.73;;;14.70;;
12312;SDS011;6220;53.580;9.758;2022-11-18T04:23:46;18.90;;;14.83;;
12312;SDS011;6220;53.580;9.758;2022-11-18T04:26:11;16.23;;;14.00;;
12312;SDS011;6220;53.580;9.758;2022-11-18T04:28:36;16.87;;;14.43;;
12312;SDS011;6220;53.580;9.758;2022-11-18T04:31:02;17.77;;;14.70;;
12312;SDS011;6220;53.580;9.758;2022-11-18T04:33:27;17.20;;;14.83;;
12312;SDS011;6220;53.580;9.758;2022-11-18T04:35:52;18.43;;;14.17;;
12312;SDS011;6220;53.580;9.758;2022-11-18T04:38:18;18.27;;;13.93;;
12312;SDS011;6220;53.580;9.758;2022-11-18T04:40:44;17.37;;;14.30;;
12312;SDS011;6220;53.580;9.758;2022-11-18T04:43:10;17.33;;;14.30;;
12312;SDS011;6220;53.580;9.758;2022-11-18T04:45:35;16.23;;;14.27;;
12312;SDS011;6220;53.580;9.758;2022-11-18T04:48:01;17.37;;;13.77;;
12312;SDS011;6220;53.580;9.758;2022-11-18T04:50:26;16.90;;;14.27;;
12312;SDS011;6220;53.580;9.758;2022-11-18T04:52:51;16.30;;;14.00;;
12312;SDS011;6220;53.580;9.758;2022-11-18T04:55:17;19.93;;;14.80;;
12312;SDS011;6220;53.580;9.758;2022-11-18T04:57:42;20.40;;;15.73;;
12312;SDS011;6220;53.580;9.758;2022-11-18T05:00:08;16.50;;;14.67;;
12312;SDS011;6220;53.580;9.758;2022-11-18T05:02:33;18.63;;;15.63;;
12312;SDS011;6220;53.580;9.758;2022-11-18T05:04:59;19.03;;;14.53;;
12312;SDS011;6220;53.580;9.758;2022-11-18T05:07:24;20.07;;;15.03;;
12312;SDS011;6220;53.580;9.758;2022-11-18T05:09:49;17.53;;;14.00;;
12312;SDS011;6220;53.580;9.758;2022-11-18T05:12:15;17.30;;;14.13;;
12312;SDS011;6220;53.580;9.758;2022-11-18T05:14:59;17.23;;;14.40;;
12312;SDS011;6220;53.580;9.758;2022-11-18T05:17:25;16.80;;;14.27;;
12312;SDS011;6220;53.580;9.758;2022-11-18T05:19:50;20.60;;;16.37;;
12312;SDS011;6220;53.580;9.758;2022-11-18T05:22:15;16.93;;;15.13;;
12312;SDS011;6220;53.580;9.758;2022-11-18T05:24:41;18.47;;;15.37;;
12312;SDS011;6220;53.580;9.758;2022-11-18T05:27:06;18.17;;;15.17;;
12312;SDS011;6220;53.580;9.758;2022-11-18T05:29:31;19.43;;;15.47;;
12312;SDS011;6220;53.580;9.758;2022-11-18T05:31:57;21.17;;;16.40;;
12312;SDS011;6220;53.580;9.758;2022-11-18T05:34:23;20.50;;;15.47;;
12312;SDS011;6220;53.580;9.758;2022-11-18T05:36:48;19.60;;;15.50;;
12312;SDS011;6220;53.580;9.758;2022-11-18T05:39:13;18.30;;;15.30;;
12312;SDS011;6220;53.580;9.758;2022-11-18T05:41:39;17.93;;;15.40;;
12312;SDS011;6220;53.580;9.758;2022-11-18T05:44:23;17.73;;;14.73;;
12312;SDS011;6220;53.580;9.758;2022-11-18T05:46:49;19.60;;;15.90;;
12312;SDS011;6220;53.580;9.758;2022-11-18T05:49:14;21.07;;;16.20;;
12312;SDS011;6220;53.580;9.758;2022-11-18T05:51:39;19.77;;;17.30;;
12312;SDS011;6220;53.580;9.758;2022-11-18T05:54:06;22.17;;;17.10;;
12312;SDS011;6220;53.580;9.758;2022-11-18T05:59:05;21.77;;;17.47;;
12312;SDS011;6220;53.580;9.758;2022-11-18T06:03:57;19.93;;;17.17;;
12312;SDS011;6220;53.580;9.758;2022-11-18T06:06:23;18.80;;;16.43;;
12312;SDS011;6220;53.580;9.758;2022-11-18T06:09:00;22.13;;;17.93;;
12312;SDS011;6220;53.580;9.758;2022-11-18T06:11:27;21.63;;;17.73;;
12312;SDS011;6220;53.580;9.758;2022-11-18T06:13:56;19.90;;;16.30;;
12312;SDS011;6220;53.580;9.758;2022-11-18T06:16:25;20.23;;;16.77;;
12312;SDS011;6220;53.580;9.758;2022-11-18T06:18:53;20.67;;;17.83;;
12312;SDS011;6220;53.580;9.758;2022-11-18T06:21:18;20.87;;;17.07;;
12312;SDS011;6220;53.580;9.758;2022-11-18T06:23:44;21.00;;;17.50;;
12312;SDS011;6220;53.580;9.758;2022-11-18T06:26:11;19.83;;;17.70;;
12312;SDS011;6220;53.580;9.758;2022-11-18T06:28:37;22.67;;;19.27;;
12312;SDS011;6220;53.580;9.758;2022-11-18T06:31:04;23.07;;;18.30;;
12312;SDS011;6220;53.580;9.758;2022-11-18T06:33:29;21.37;;;17.83;;
12312;SDS011;6220;53.580;9.758;2022-11-18T06:35:54;23.83;;;18.60;;
12312;SDS011;6220;53.580;9.758;2022-11-18T06:38:22;21.53;;;17.97;;
12312;SDS011;6220;53.580;9.758;2022-11-18T06:40:48;23.37;;;19.00;;
12312;SDS011;6220;53.580;9.758;2022-11-18T06:43:13;26.50;;;20.23;;
12312;SDS011;6220;53.580;9.758;2022-11-18T06:45:58;22.83;;;18.17;;
12312;SDS011;6220;53.580;9.758;2022-11-18T06:48:42;21.37;;;17.50;;
12312;SDS011;6220;53.580;9.758;2022-11-18T06:51:07;23.43;;;18.90;;
12312;SDS011;6220;53.580;9.758;2022-11-18T06:53:33;20.10;;;17.50;;
12312;SDS011;6220;53.580;9.758;2022-11-18T06:56:05;22.40;;;18.00;;
12312;SDS011;6220;53.580;9.758;2022-11-18T06:58:32;22.10;;;17.47;;
12312;SDS011;6220;53.580;9.758;2022-11-18T07:00:59;25.07;;;18.47;;
12312;SDS011;6220;53.580;9.758;2022-11-18T07:03:36;24.60;;;18.63;;
12312;SDS011;6220;53.580;9.758;2022-11-18T07:06:02;22.03;;;18.87;;
12312;SDS011;6220;53.580;9.758;2022-11-18T07:08:27;23.87;;;19.13;;
12312;SDS011;6220;53.580;9.758;2022-11-18T07:10:53;26.10;;;19.27;;
12312;SDS011;6220;53.580;9.758;2022-11-18T07:13:18;22.70;;;18.20;;
12312;SDS011;6220;53.580;9.758;2022-11-18T07:15:43;23.57;;;18.67;;
12312;SDS011;6220;53.580;9.758;2022-11-18T07:18:09;22.43;;;18.57;;
12312;SDS011;6220;53.580;9.758;2022-11-18T07:20:34;21.97;;;17.83;;
12312;SDS011;6220;53.580;9.758;2022-11-18T07:23:00;23.17;;;18.67;;
12312;SDS011;6220;53.580;9.758;2022-11-18T07:25:25;22.80;;;17.60;;
12312;SDS011;6220;53.580;9.758;2022-11-18T07:27:50;24.67;;;18.37;;
12312;SDS011;6220;53.580;9.758;2022-11-18T07:30:16;23.50;;;18.80;;
12312;SDS011;6220;53.580;9.758;2022-11-18T07:32:41;22.37;;;18.67;;
12312;SDS011;6220;53.580;9.758;2022-11-18T07:35:07;23.40;;;18.83;;
12312;SDS011;6220;53.580;9.758;2022-11-18T07:37:32;24.30;;;19.33;;
12312;SDS011;6220;53.580;9.758;2022-11-18T07:39:58;21.80;;;17.90;;
12312;SDS011;6220;53.580;9.758;2022-11-18T07:42:26;22.33;;;18.60;;
12312;SDS011;6220;53.580;9.758;2022-11-18T07:44:51;24.67;;;19.30;;
12312;SDS011;6220;53.580;9.758;2022-11-18T07:47:17;25.47;;;18.57;;
12312;SDS011;6220;53.580;9.758;2022-11-18T07:49:42;22.60;;;17.77;;
12312;SDS011;6220;53.580;9.758;2022-11-18T07:52:07;23.47;;;18.13;;
12312;SDS011;6220;53.580;9.758;2022-11-18T07:54:33;22.73;;;18.87;;
12312;SDS011;6220;53.580;9.758;2022-11-18T07:56:58;23.07;;;18.03;;
12312;SDS011;6220;53.580;9.758;2022-11-18T07:59:23;21.80;;;17.93;;
12312;SDS011;6220;53.580;9.758;2022-11-18T08:01:49;25.73;;;19.10;;
12312;SDS011;6220;53.580;9.758;2022-11-18T08:04:14;24.90;;;18.40;;
12312;SDS011;6220;53.580;9.758;2022-11-18T08:06:40;22.73;;;18.03;;
12312;SDS011;6220;53.580;9.758;2022-11-18T08:09:06;21.67;;;17.77;;
12312;SDS011;6220;53.580;9.758;2022-11-18T08:11:32;21.73;;;17.47;;
12312;SDS011;6220;53.580;9.758;2022-11-18T08:13:57;22.40;;;17.73;;
12312;SDS011;6220;53.580;9.758;2022-11-18T08:16:23;22.97;;;17.00;;
12312;SDS011;6220;53.580;9.758;2022-11-18T08:18:49;20.73;;;17.20;;
12312;SDS011;6220;53.580;9.758;2022-11-18T08:21:15;21.93;;;17.20;;
12312;SDS011;6220;53.580;9.758;2022-11-18T08:23:42;18.00;;;15.03;;
12312;SDS011;6220;53.580;9.758;2022-11-18T08:28:40;18.43;;;15.63;;
12312;SDS011;6220;53.580;9.758;2022-11-18T08:31:09;19.37;;;15.47;;
12312;SDS011;6220;53.580;9.758;2022-11-18T08:33:36;18.73;;;14.93;;
12312;SDS011;6220;53.580;9.758;2022-11-18T08:36:09;19.23;;;15.70;;
12312;SDS011;6220;53.580;9.758;2022-11-18T08:38:37;18.53;;;15.33;;
12312;SDS011;6220;53.580;9.758;2022-11-18T08:41:02;17.33;;;14.83;;
12312;SDS011;6220;53.580;9.758;2022-11-18T08:43:29;18.40;;;14.77;;
12312;SDS011;6220;53.580;9.758;2022-11-18T08:45:54;19.67;;;14.33;;
12312;SDS011;6220;53.580;9.758;2022-11-18T08:48:20;18.80;;;15.13;;
12312;SDS011;6220;53.580;9.758;2022-11-18T08:50:45;19.37;;;15.50;;
12312;SDS011;6220;53.580;9.758;2022-11-18T08:53:10;20.87;;;15.77;;
12312;SDS011;6220;53.580;9.758;2022-11-18T08:55:37;17.57;;;14.40;;
12312;SDS011;6220;53.580;9.758;2022-11-18T08:58:02;18.00;;;14.23;;
12312;SDS011;6220;53.580;9.758;2022-11-18T09:00:27;16.23;;;13.63;;
12312;SDS011;6220;53.580;9.758;2022-11-18T09:02:53;18.30;;;15.40;;
12312;SDS011;6220;53.580;9.758;2022-11-18T09:05:18;18.37;;;14.50;;
12312;SDS011;6220;53.580;9.758;2022-11-18T09:07:44;17.53;;;14.07;;
12312;SDS011;6220;53.580;9.758;2022-11-18T09:10:09;17.33;;;14.33;;
12312;SDS011;6220;53.580;9.758;2022-11-18T09:12:34;19.37;;;14.47;;
12312;SDS011;6220;53.580;9.758;2022-11-18T09:15:00;17.77;;;14.90;;
12312;SDS011;6220;53.580;9.758;2022-11-18T09:17:25;20.17;;;14.87;;
12312;SDS011;6220;53.580;9.758;2022-11-18T09:19:51;18.90;;;15.03;;
12312;SDS011;6220;53.580;9.758;2022-11-18T09:22:16;17.87;;;14.33;;
12312;SDS011;6220;53.580;9.758;2022-11-18T09:24:41;17.37;;;14.10;;
12312;SDS011;6220;53.580;9.758;2022-11-18T09:27:07;16.80;;;14.27;;
12312;SDS011;6220;53.580;9.758;2022-11-18T09:29:33;17.37;;;14.20;;
12312;SDS011;6220;53.580;9.758;2022-11-18T09:31:58;16.63;;;14.17;;
12312;SDS011;6220;53.580;9.758;2022-11-18T09:34:27;15.87;;;13.73;;
12312;SDS011;6220;53.580;9.758;2022-11-18T09:36:53;19.90;;;14.90;;
12312;SDS011;6220;53.580;9.758;2022-11-18T09:39:20;16.53;;;14.27;;
12312;SDS011;6220;53.580;9.758;2022-11-18T09:41:48;16.97;;;14.53;;
12312;SDS011;6220;53.580;9.758;2022-11-18T09:49:39;18.10;;;14.03;;
12312;SDS011;6220;53.580;9.758;2022-11-18T09:52:11;17.53;;;13.17;;
12312;SDS011;6220;53.580;9.758;2022-11-18T09:54:42;16.83;;;13.57;;
12312;SDS011;6220;53.580;9.758;2022-11-18T09:57:12;15.23;;;13.53;;
12312;SDS011;6220;53.580;9.758;2022-11-18T09:59:42;16.27;;;13.33;;
12312;SDS011;6220;53.580;9.758;2022-11-18T10:04:38;14.30;;;12.60;;
12312;SDS011;6220;53.580;9.758;2022-11-18T10:07:22;17.17;;;13.07;;
12312;SDS011;6220;53.580;9.758;2022-11-18T10:10:02;16.27;;;12.20;;
12312;SDS011;6220;53.580;9.758;2022-11-18T10:12:40;14.03;;;11.80;;
12312;SDS011;6220;53.580;9.758;2022-11-18T10:20:52;13.90;;;11.53;;
12312;SDS011;6220;53.580;9.758;2022-11-18T10:23:25;15.90;;;11.63;;
12312;SDS011;6220;53.580;9.758;2022-11-18T10:26:07;13.37;;;11.53;;
12312;SDS011;6220;53.580;9.758;2022-11-18T10:28:32;14.17;;;11.33;;
12312;SDS011;6220;53.580;9.758;2022-11-18T10:31:09;14.37;;;12.03;;
12312;SDS011;6220;53.580;9.758;2022-11-18T10:33:35;12.67;;;10.20;;
12312;SDS011;6220;53.580;9.758;2022-11-18T10:36:17;13.60;;;10.37;;
12312;SDS011;6220;53.580;9.758;2022-11-18T10:39:03;14.87;;;10.70;;
12312;SDS011;6220;53.580;9.758;2022-11-18T10:41:46;12.07;;;10.43;;
12312;SDS011;6220;53.580;9.758;2022-11-18T10:44:24;13.50;;;10.60;;
12312;SDS011;6220;53.580;9.758;2022-11-18T10:46:53;13.20;;;10.40;;
12312;SDS011;6220;53.580;9.758;2022-11-18T10:49:18;11.07;;;9.57;;
12312;SDS011;6220;53.580;9.758;2022-11-18T10:51:48;12.53;;;9.70;;
12312;SDS011;6220;53.580;9.758;2022-11-18T10:54:32;14.30;;;10.50;;
12312;SDS011;6220;53.580;9.758;2022-11-18T10:57:12;12.30;;;10.20;;
12312;SDS011;6220;53.580;9.758;2022-11-18T11:04:44;10.10;;;8.53;;
12312;SDS011;6220;53.580;9.758;2022-11-18T11:07:15;11.57;;;8.60;;
12312;SDS011;6220;53.580;9.758;2022-11-18T11:12:31;7.93;;;6.90;;
12312;SDS011;6220;53.580;9.758;2022-11-18T11:15:10;13.73;;;8.10;;
12312;SDS011;6220;53.580;9.758;2022-11-18T11:17:41;8.70;;;7.60;;
12312;SDS011;6220;53.580;9.758;2022-11-18T11:20:20;8.73;;;7.50;;
12312;SDS011;6220;53.580;9.758;2022-11-18T11:22:48;10.37;;;7.73;;
12312;SDS011;6220;53.580;9.758;2022-11-18T11:25:17;7.97;;;7.17;;
12312;SDS011;6220;53.580;9.758;2022-11-18T11:27:55;8.43;;;6.87;;
12312;SDS011;6220;53.580;9.758;2022-11-18T11:30:25;9.40;;;6.80;;
12312;SDS011;6220;53.580;9.758;2022-11-18T11:35:46;11.23;;;7.17;;
12312;SDS011;6220;53.580;9.758;2022-11-18T11:38:15;10.60;;;7.07;;
12312;SDS011;6220;53.580;9.758;2022-11-18T11:43:33;9.30;;;6.93;;
12312;SDS011;6220;53.580;9.758;2022-11-18T11:52:04;8.40;;;7.33;;
12312;SDS011;6220;53.580;9.758;2022-11-18T11:54:44;8.60;;;7.13;;
12312;SDS011;6220;53.580;9.758;2022-11-18T12:00:07;12.00;;;8.37;;
12312;SDS011;6220;53.580;9.758;2022-11-18T12:02:54;35.43;;;22.43;;
12312;SDS011;6220;53.580;9.758;2022-11-18T12:05:31;12.03;;;8.47;;
12312;SDS011;6220;53.580;9.758;2022-11-18T12:08:01;9.47;;;7.40;;
12312;SDS011;6220;53.580;9.758;2022-11-18T12:10:40;8.30;;;6.50;;
12312;SDS011;6220;53.580;9.758;2022-11-18T12:18:58;10.57;;;8.03;;
12312;SDS011;6220;53.580;9.758;2022-11-18T12:26:58;12.80;;;7.97;;
12312;SDS011;6220;53.580;9.758;2022-11-18T12:29:33;11.90;;;7.30;;
12312;SDS011;6220;53.580;9.758;2022-11-18T12:34:59;9.07;;;7.27;;
12312;SDS011;6220;53.580;9.758;2022-11-18T12:46:01;11.20;;;7.50;;
12312;SDS011;6220;53.580;9.758;2022-11-18T12:48:36;11.07;;;7.53;;
12312;SDS011;6220;53.580;9.758;2022-11-18T12:53:41;10.37;;;7.10;;
12312;SDS011;6220;53.580;9.758;2022-11-18T12:56:19;10.60;;;7.33;;
12312;SDS011;6220;53.580;9.758;2022-11-18T12:58:46;11.10;;;7.63;;
12312;SDS011;6220;53.580;9.758;2022-11-18T13:01:15;15.90;;;10.13;;
12312;SDS011;6220;53.580;9.758;2022-11-18T13:03:42;10.17;;;7.00;;
12312;SDS011;6220;53.580;9.758;2022-11-18T13:06:13;9.13;;;6.73;;
12312;SDS011;6220;53.580;9.758;2022-11-18T13:08:48;8.63;;;6.77;;
12312;SDS011;6220;53.580;9.758;2022-11-18T13:11:16;10.07;;;6.93;;
12312;SDS011;6220;53.580;9.758;2022-11-18T13:17:22;9.40;;;6.73;;
12312;SDS011;6220;53.580;9.758;2022-11-18T13:20:17;9.43;;;6.83;;
12312;SDS011;6220;53.580;9.758;2022-11-18T13:22:49;8.57;;;6.20;;
12312;SDS011;6220;53.580;9.758;2022-11-18T13:25:34;11.57;;;8.00;;
12312;SDS011;6220;53.580;9.758;2022-11-18T13:30:51;11.67;;;7.40;;
12312;SDS011;6220;53.580;9.758;2022-11-18T13:33:20;8.70;;;6.47;;
12312;SDS011;6220;53.580;9.758;2022-11-18T13:35:45;7.67;;;5.77;;
12312;SDS011;6220;53.580;9.758;2022-11-18T13:38:18;8.80;;;6.23;;
12312;SDS011;6220;53.580;9.758;2022-11-18T13:40:46;8.23;;;6.10;;
12312;SDS011;6220;53.580;9.758;2022-11-18T13:43:33;6.70;;;5.43;;
12312;SDS011;6220;53.580;9.758;2022-11-18T13:45:59;7.47;;;5.70;;
12312;SDS011;6220;53.580;9.758;2022-11-18T13:48:26;8.67;;;5.80;;
12312;SDS011;6220;53.580;9.758;2022-11-18T13:50:52;8.37;;;5.63;;
12312;SDS011;6220;53.580;9.758;2022-11-18T13:53:27;8.47;;;5.93;;
12312;SDS011;6220;53.580;9.758;2022-11-18T13:56:18;7.37;;;5.50;;
12312;SDS011;6220;53.580;9.758;2022-11-18T13:58:53;6.50;;;4.90;;
12312;SDS011;6220;53.580;9.758;2022-11-18T14:01:25;7.10;;;4.70;;
12312;SDS011;6220;53.580;9.758;2022-11-18T14:03:58;7.87;;;5.40;;
12312;SDS011;6220;53.580;9.758;2022-11-18T14:06:26;8.43;;;5.20;;
12312;SDS011;6220;53.580;9.758;2022-11-18T14:11:46;5.70;;;4.50;;
12312;SDS011;6220;53.580;9.758;2022-11-18T14:14:26;6.33;;;4.63;;
12312;SDS011;6220;53.580;9.758;2022-11-18T14:16:53;6.10;;;4.47;;
12312;SDS011;6220;53.580;9.758;2022-11-18T14:19:39;5.33;;;4.20;;
12312;SDS011;6220;53.580;9.758;2022-11-18T14:22:09;5.00;;;3.77;;
12312;SDS011;6220;53.580;9.758;2022-11-18T14:24:36;5.13;;;3.80;;
12312;SDS011;6220;53.580;9.758;2022-11-18T14:33:22;5.60;;;4.33;;
12312;SDS011;6220;53.580;9.758;2022-11-18T14:41:15;7.83;;;4.50;;
12312;SDS011;6220;53.580;9.758;2022-11-18T14:44:02;4.20;;;3.67;;
12312;SDS011;6220;53.580;9.758;2022-11-18T14:46:28;5.10;;;3.83;;
12312;SDS011;6220;53.580;9.758;2022-11-18T14:48:53;4.17;;;3.53;;
12312;SDS011;6220;53.580;9.758;2022-11-18T14:51:19;5.40;;;3.87;;
12312;SDS011;6220;53.580;9.758;2022-11-18T14:53:44;4.87;;;4.10;;
12312;SDS011;6220;53.580;9.758;2022-11-18T14:56:20;5.27;;;4.20;;
12312;SDS011;6220;53.580;9.758;2022-11-18T14:58:48;4.60;;;3.50;;
12312;SDS011;6220;53.580;9.758;2022-11-18T15:01:13;7.00;;;3.97;;
12312;SDS011;6220;53.580;9.758;2022-11-18T15:03:38;4.63;;;3.83;;
12312;SDS011;6220;53.580;9.758;2022-11-18T15:06:11;4.67;;;3.80;;
12312;SDS011;6220;53.580;9.758;2022-11-18T15:08:37;6.03;;;4.40;;
12312;SDS011;6220;53.580;9.758;2022-11-18T15:11:03;5.77;;;4.50;;
12312;SDS011;6220;53.580;9.758;2022-11-18T15:13:28;6.27;;;4.50;;
12312;SDS011;6220;53.580;9.758;2022-11-18T15:15:54;6.40;;;4.13;;
12312;SDS011;6220;53.580;9.758;2022-11-18T15:18:19;5.47;;;4.13;;
12312;SDS011;6220;53.580;9.758;2022-11-18T15:20:49;5.63;;;4.30;;
12312;SDS011;6220;53.580;9.758;2022-11-18T15:23:14;5.40;;;4.70;;
12312;SDS011;6220;53.580;9.758;2022-11-18T15:25:40;6.50;;;4.17;;
12312;SDS011;6220;53.580;9.758;2022-11-18T15:28:05;5.23;;;4.43;;
12312;SDS011;6220;53.580;9.758;2022-11-18T15:30:30;6.40;;;4.60;;
12312;SDS011;6220;53.580;9.758;2022-11-18T15:32:56;7.03;;;4.60;;
12312;SDS011;6220;53.580;9.758;2022-11-18T15:35:21;6.90;;;5.50;;
12312;SDS011;6220;53.580;9.758;2022-11-18T15:37:46;6.43;;;4.87;;
12312;SDS011;6220;53.580;9.758;2022-11-18T15:40:12;6.53;;;4.77;;
12312;SDS011;6220;53.580;9.758;2022-11-18T15:42:38;7.13;;;4.17;;
12312;SDS011;6220;53.580;9.758;2022-11-18T15:45:03;12.30;;;8.23;;
12312;SDS011;6220;53.580;9.758;2022-11-18T15:47:29;12.07;;;6.10;;
12312;SDS011;6220;53.580;9.758;2022-11-18T15:49:54;5.90;;;4.90;;
12312;SDS011;6220;53.580;9.758;2022-11-18T15:52:19;6.70;;;4.40;;
12312;SDS011;6220;53.580;9.758;2022-11-18T15:54:45;8.73;;;5.67;;
12312;SDS011;6220;53.580;9.758;2022-11-18T15:57:10;5.83;;;4.80;;
12312;SDS011;6220;53.580;9.758;2022-11-18T15:59:35;6.93;;;4.60;;
12312;SDS011;6220;53.580;9.758;2022-11-18T16:02:01;6.90;;;4.50;;
12312;SDS011;6220;53.580;9.758;2022-11-18T16:04:26;5.93;;;5.33;;
12312;SDS011;6220;53.580;9.758;2022-11-18T16:06:52;7.00;;;5.40;;
12312;SDS011;6220;53.580;9.758;2022-11-18T16:09:17;5.03;;;4.40;;
12312;SDS011;6220;53.580;9.758;2022-11-18T16:11:43;5.43;;;4.20;;
12312;SDS011;6220;53.580;9.758;2022-11-18T16:14:26;20.67;;;4.73;;
12312;SDS011;6220;53.580;9.758;2022-11-18T16:16:53;5.63;;;4.07;;
12312;SDS011;6220;53.580;9.758;2022-11-18T16:19:19;9.67;;;4.87;;
12312;SDS011;6220;53.580;9.758;2022-11-18T16:21:47;5.47;;;4.10;;
12312;SDS011;6220;53.580;9.758;2022-11-18T16:24:15;5.47;;;4.20;;
12312;SDS011;6220;53.580;9.758;2022-11-18T16:26:45;6.20;;;4.43;;
12312;SDS011;6220;53.580;9.758;2022-11-18T16:29:11;6.37;;;4.73;;
12312;SDS011;6220;53.580;9.758;2022-11-18T16:31:39;5.70;;;4.87;;
12312;SDS011;6220;53.580;9.758;2022-11-18T16:36:51;8.93;;;5.47;;
12312;SDS011;6220;53.580;9.758;2022-11-18T16:39:18;6.70;;;5.00;;
12312;SDS011;6220;53.580;9.758;2022-11-18T16:41:48;8.33;;;5.40;;
12312;SDS011;6220;53.580;9.758;2022-11-18T16:44:14;7.23;;;5.40;;
12312;SDS011;6220;53.580;9.758;2022-11-18T16:46:50;9.93;;;6.37;;
12312;SDS011;6220;53.580;9.758;2022-11-18T16:49:18;7.50;;;5.33;;
12312;SDS011;6220;53.580;9.758;2022-11-18T16:51:45;7.30;;;5.43;;
12312;SDS011;6220;53.580;9.758;2022-11-18T16:54:19;8.43;;;5.23;;